sensor_id;sensor_type;location;lat;lon;timestamp;pressure;altitude;pressure_sealevel;temperature;humidity
60055;BME280;45930;53.514;55.904;2023-01-28T00:00:33;49639.06;;;-149.77;69.63
60055;BME280;45930;53.514;55.904;2023-01-28T00:01:35;49611.34;;;-149.77;69.32
60055;BME280;45930;53.514;55.904;2023-01-28T00:02:36;49643.03;;;-149.77;69.02
60055;BME280;45930;53.514;55.904;2023-01-28T00:03:36;49648.97;;;-149.77;68.93
60055;BME280;45930;53.514;55.904;2023-01-28T00:04:37;49678.69;;;-149.77;69.10
60055;BME280;45930;53.514;55.904;2023-01-28T00:05:39;49656.91;;;-149.77;68.78
60055;BME280;45930;53.514;55.904;2023-01-28T00:06:40;49662.84;;;-149.77;68.73
60055;BME280;45930;53.514;55.904;2023-01-28T00:07:41;49643.03;;;-149.77;68.96
60055;BME280;45930;53.514;55.904;2023-01-28T00:08:42;49647.00;;;-149.77;68.73
60055;BME280;45930;53.514;55.904;2023-01-28T00:09:43;49662.84;;;-149.77;68.80
60055;BME280;45930;53.514;55.904;2023-01-28T00:10:43;49654.91;;;-149.77;68.95
60055;BME280;45930;53.514;55.904;2023-01-28T00:11:44;49680.66;;;-149.77;68.24
60055;BME280;45930;53.514;55.904;2023-01-28T00:12:45;49637.09;;;-149.77;68.21
60055;BME280;45930;53.514;55.904;2023-01-28T00:13:46;49629.16;;;-149.77;67.87
60055;BME280;45930;53.514;55.904;2023-01-28T00:14:49;49635.09;;;-149.77;67.85
60055;BME280;45930;53.514;55.904;2023-01-28T00:16:01;49613.31;;;-149.77;68.00
60055;BME280;45930;53.514;55.904;2023-01-28T00:17:04;49654.91;;;-149.77;67.80
60055;BME280;45930;53.514;55.904;2023-01-28T00:18:05;49672.75;;;-149.77;67.81
60055;BME280;45930;53.514;55.904;2023-01-28T00:19:06;49643.03;;;-149.77;67.53
60055;BME280;45930;53.514;55.904;2023-01-28T00:20:07;49656.91;;;-149.77;67.38
60055;BME280;45930;53.514;55.904;2023-01-28T00:21:13;49647.00;;;-149.77;68.07
60055;BME280;45930;53.514;55.904;2023-01-28T00:22:15;49633.13;;;-149.77;68.35
60055;BME280;45930;53.514;55.904;2023-01-28T00:23:15;49656.91;;;-149.77;68.25
60055;BME280;45930;53.514;55.904;2023-01-28T00:24:16;49650.94;;;-149.77;67.96
60055;BME280;45930;53.514;55.904;2023-01-28T00:25:17;49662.84;;;-149.77;67.74
60055;BME280;45930;53.514;55.904;2023-01-28T00:26:19;49660.84;;;-149.77;67.91
60055;BME280;45930;53.514;55.904;2023-01-28T00:27:20;49641.06;;;-149.77;67.44
60055;BME280;45930;53.514;55.904;2023-01-28T00:28:21;49652.94;;;-149.77;67.61
60055;BME280;45930;53.514;55.904;2023-01-28T00:29:21;49641.06;;;-149.77;67.24
60055;BME280;45930;53.514;55.904;2023-01-28T00:30:22;49637.09;;;-149.77;67.07
60055;BME280;45930;53.514;55.904;2023-01-28T00:31:24;49662.84;;;-149.77;67.10
60055;BME280;45930;53.514;55.904;2023-01-28T00:32:26;49647.00;;;-149.77;67.12
60055;BME280;45930;53.514;55.904;2023-01-28T00:33:28;49639.06;;;-149.77;67.01
60055;BME280;45930;53.514;55.904;2023-01-28T00:34:29;49670.75;;;-149.77;67.16
60055;BME280;45930;53.514;55.904;2023-01-28T00:35:30;49647.00;;;-149.77;67.29
60055;BME280;45930;53.514;55.904;2023-01-28T00:36:30;49682.66;;;-149.77;67.46
60055;BME280;45930;53.514;55.904;2023-01-28T00:37:31;49684.63;;;-149.77;66.66
60055;BME280;45930;53.514;55.904;2023-01-28T00:38:32;49631.16;;;-149.77;66.72
60055;BME280;45930;53.514;55.904;2023-01-28T00:39:33;49650.94;;;-149.77;66.86
60055;BME280;45930;53.514;55.904;2023-01-28T00:40:34;49650.94;;;-149.77;67.02
60055;BME280;45930;53.514;55.904;2023-01-28T00:41:35;49648.97;;;-149.77;67.11
60055;BME280;45930;53.514;55.904;2023-01-28T00:42:36;49645.00;;;-149.77;66.86
60055;BME280;45930;53.514;55.904;2023-01-28T00:43:38;49650.94;;;-149.77;66.92
60055;BME280;45930;53.514;55.904;2023-01-28T00:44:39;49635.09;;;-149.77;66.77
60055;BME280;45930;53.514;55.904;2023-01-28T00:45:40;49658.88;;;-149.77;66.60
60055;BME280;45930;53.514;55.904;2023-01-28T00:46:40;49662.84;;;-149.77;66.94
60055;BME280;45930;53.514;55.904;2023-01-28T00:47:41;49652.94;;;-149.77;67.24
60055;BME280;45930;53.514;55.904;2023-01-28T00:48:44;49662.84;;;-149.77;67.38
60055;BME280;45930;53.514;55.904;2023-01-28T00:49:44;49656.91;;;-149.77;67.70
60055;BME280;45930;53.514;55.904;2023-01-28T00:50:45;49660.84;;;-149.77;67.40
60055;BME280;45930;53.514;55.904;2023-01-28T00:51:46;49670.75;;;-149.77;67.20
60055;BME280;45930;53.514;55.904;2023-01-28T00:52:48;49647.00;;;-149.77;67.38
60055;BME280;45930;53.514;55.904;2023-01-28T00:53:49;49666.81;;;-149.77;67.32
60055;BME280;45930;53.514;55.904;2023-01-28T00:54:50;49647.00;;;-149.77;67.44
60055;BME280;45930;53.514;55.904;2023-01-28T00:55:51;49641.06;;;-149.77;67.61
60055;BME280;45930;53.514;55.904;2023-01-28T00:56:52;49650.94;;;-149.77;67.53
60055;BME280;45930;53.514;55.904;2023-01-28T00:57:55;49647.00;;;-149.77;67.19
60055;BME280;45930;53.514;55.904;2023-01-28T00:58:56;49658.88;;;-149.77;67.28
60055;BME280;45930;53.514;55.904;2023-01-28T00:59:57;49648.97;;;-149.77;67.20
60055;BME280;45930;53.514;55.904;2023-01-28T01:01:18;49672.75;;;-149.77;66.92
60055;BME280;45930;53.514;55.904;2023-01-28T01:02:19;49668.78;;;-149.77;66.62
60055;BME280;45930;53.514;55.904;2023-01-28T01:03:20;49688.59;;;-149.77;66.50
60055;BME280;45930;53.514;55.904;2023-01-28T01:04:21;49650.94;;;-149.77;66.23
60055;BME280;45930;53.514;55.904;2023-01-28T01:05:25;49670.75;;;-149.77;67.33
60055;BME280;45930;53.514;55.904;2023-01-28T01:06:28;49682.66;;;-149.77;67.14
60055;BME280;45930;53.514;55.904;2023-01-28T01:07:30;49643.03;;;-149.77;66.90
60055;BME280;45930;53.514;55.904;2023-01-28T01:08:43;49664.81;;;-149.77;66.45
60055;BME280;45930;53.514;55.904;2023-01-28T01:09:49;49674.72;;;-149.77;66.78
60055;BME280;45930;53.514;55.904;2023-01-28T01:10:50;49662.84;;;-149.77;66.83
60055;BME280;45930;53.514;55.904;2023-01-28T01:11:51;49666.81;;;-149.77;66.85
60055;BME280;45930;53.514;55.904;2023-01-28T01:12:52;49658.88;;;-149.77;66.75
60055;BME280;45930;53.514;55.904;2023-01-28T01:13:54;49654.91;;;-149.77;66.87
60055;BME280;45930;53.514;55.904;2023-01-28T01:14:56;49674.72;;;-149.77;66.74
60055;BME280;45930;53.514;55.904;2023-01-28T01:17:05;49658.88;;;-149.77;66.70
60055;BME280;45930;53.514;55.904;2023-01-28T01:18:06;49662.84;;;-149.77;66.57
60055;BME280;45930;53.514;55.904;2023-01-28T01:19:07;49670.75;;;-149.77;66.60
60055;BME280;45930;53.514;55.904;2023-01-28T01:20:14;49660.84;;;-149.77;66.65
60055;BME280;45930;53.514;55.904;2023-01-28T01:21:17;49682.66;;;-149.77;67.02
60055;BME280;45930;53.514;55.904;2023-01-28T01:22:18;49668.78;;;-149.77;67.48
60055;BME280;45930;53.514;55.904;2023-01-28T01:23:19;49658.88;;;-149.77;68.12
60055;BME280;45930;53.514;55.904;2023-01-28T01:24:22;49662.84;;;-149.77;68.10
60055;BME280;45930;53.514;55.904;2023-01-28T01:25:23;49674.72;;;-149.77;68.02
60055;BME280;45930;53.514;55.904;2023-01-28T01:26:24;49650.94;;;-149.77;67.78
60055;BME280;45930;53.514;55.904;2023-01-28T01:27:26;49680.66;;;-149.77;67.91
60055;BME280;45930;53.514;55.904;2023-01-28T01:28:27;49648.97;;;-149.77;68.03
60055;BME280;45930;53.514;55.904;2023-01-28T01:29:28;49678.69;;;-149.77;67.94
60055;BME280;45930;53.514;55.904;2023-01-28T01:30:29;49641.06;;;-149.77;67.92
60055;BME280;45930;53.514;55.904;2023-01-28T01:31:29;49694.53;;;-149.77;67.41
60055;BME280;45930;53.514;55.904;2023-01-28T01:32:31;49674.72;;;-149.77;66.89
60055;BME280;45930;53.514;55.904;2023-01-28T01:33:33;49670.75;;;-149.77;67.18
60055;BME280;45930;53.514;55.904;2023-01-28T01:34:34;49641.06;;;-149.77;67.08
60055;BME280;45930;53.514;55.904;2023-01-28T01:35:34;49682.66;;;-149.77;67.14
60055;BME280;45930;53.514;55.904;2023-01-28T01:36:35;49666.81;;;-149.77;66.90
60055;BME280;45930;53.514;55.904;2023-01-28T01:37:36;49662.84;;;-149.77;67.43
60055;BME280;45930;53.514;55.904;2023-01-28T01:38:37;49654.91;;;-149.77;67.15
60055;BME280;45930;53.514;55.904;2023-01-28T01:39:38;49652.94;;;-149.77;66.72
60055;BME280;45930;53.514;55.904;2023-01-28T01:40:38;49662.84;;;-149.77;67.25
60055;BME280;45930;53.514;55.904;2023-01-28T01:41:39;49698.50;;;-149.77;67.04
60055;BME280;45930;53.514;55.904;2023-01-28T01:42:40;49694.53;;;-149.77;66.99
60055;BME280;45930;53.514;55.904;2023-01-28T01:45:14;49690.56;;;-149.77;67.29
60055;BME280;45930;53.514;55.904;2023-01-28T01:46:39;49674.72;;;-149.77;67.35
60055;BME280;45930;53.514;55.904;2023-01-28T01:47:50;49662.84;;;-149.77;66.97
60055;BME280;45930;53.514;55.904;2023-01-28T01:48:54;49666.81;;;-149.77;66.45
60055;BME280;45930;53.514;55.904;2023-01-28T01:49:57;49639.06;;;-149.77;66.84
60055;BME280;45930;53.514;55.904;2023-01-28T01:51:03;49662.84;;;-149.77;66.70
60055;BME280;45930;53.514;55.904;2023-01-28T01:52:12;49648.97;;;-149.77;66.90
60055;BME280;45930;53.514;55.904;2023-01-28T01:53:19;49643.03;;;-149.77;66.87
60055;BME280;45930;53.514;55.904;2023-01-28T01:54:24;49647.00;;;-149.77;66.16
60055;BME280;45930;53.514;55.904;2023-01-28T01:55:28;49654.91;;;-149.77;66.49
60055;BME280;45930;53.514;55.904;2023-01-28T01:56:34;49668.78;;;-149.77;66.04
60055;BME280;45930;53.514;55.904;2023-01-28T01:57:38;49656.91;;;-149.77;66.30
60055;BME280;45930;53.514;55.904;2023-01-28T01:58:41;49656.91;;;-149.77;66.10
60055;BME280;45930;53.514;55.904;2023-01-28T01:59:43;49647.00;;;-149.77;66.27
60055;BME280;45930;53.514;55.904;2023-01-28T02:00:45;49694.53;;;-149.77;66.18
60055;BME280;45930;53.514;55.904;2023-01-28T02:01:46;49650.94;;;-149.77;65.08
60055;BME280;45930;53.514;55.904;2023-01-28T02:02:49;49676.72;;;-149.77;65.64
60055;BME280;45930;53.514;55.904;2023-01-28T02:04:00;49690.56;;;-149.77;65.85
60055;BME280;45930;53.514;55.904;2023-01-28T02:05:03;49664.81;;;-149.77;65.61
60055;BME280;45930;53.514;55.904;2023-01-28T02:06:04;49678.69;;;-149.77;66.28
60055;BME280;45930;53.514;55.904;2023-01-28T02:07:07;49680.66;;;-149.77;66.18
60055;BME280;45930;53.514;55.904;2023-01-28T02:08:09;49676.72;;;-149.77;65.92
60055;BME280;45930;53.514;55.904;2023-01-28T02:09:29;49680.66;;;-149.77;65.98
60055;BME280;45930;53.514;55.904;2023-01-28T02:10:30;49664.81;;;-149.77;66.00
60055;BME280;45930;53.514;55.904;2023-01-28T02:11:32;49704.44;;;-149.77;66.22
60055;BME280;45930;53.514;55.904;2023-01-28T02:12:35;49696.53;;;-149.77;66.35
60055;BME280;45930;53.514;55.904;2023-01-28T02:13:42;49647.00;;;-149.77;66.06
60055;BME280;45930;53.514;55.904;2023-01-28T02:15:14;49712.38;;;-149.77;66.04
60055;BME280;45930;53.514;55.904;2023-01-28T02:16:17;49688.59;;;-149.77;66.89
60055;BME280;45930;53.514;55.904;2023-01-28T02:17:19;49694.53;;;-149.77;66.55
60055;BME280;45930;53.514;55.904;2023-01-28T02:18:20;49694.53;;;-149.77;65.97
60055;BME280;45930;53.514;55.904;2023-01-28T02:19:24;49666.81;;;-149.77;65.73
60055;BME280;45930;53.514;55.904;2023-01-28T02:22:26;49658.88;;;-149.77;65.89
60055;BME280;45930;53.514;55.904;2023-01-28T02:25:09;49680.66;;;-149.77;65.28
60055;BME280;45930;53.514;55.904;2023-01-28T02:30:06;49694.53;;;-149.77;65.61
60055;BME280;45930;53.514;55.904;2023-01-28T02:32:26;49726.22;;;-149.77;65.27
60055;BME280;45930;53.514;55.904;2023-01-28T02:33:34;49674.72;;;-149.77;65.29
60055;BME280;45930;53.514;55.904;2023-01-28T02:34:45;49704.44;;;-149.77;64.78
60055;BME280;45930;53.514;55.904;2023-01-28T02:35:48;49664.81;;;-149.77;64.44
60055;BME280;45930;53.514;55.904;2023-01-28T02:37:03;49690.56;;;-149.77;64.95
60055;BME280;45930;53.514;55.904;2023-01-28T02:38:25;49684.63;;;-149.77;64.29
60055;BME280;45930;53.514;55.904;2023-01-28T02:39:30;49682.66;;;-149.77;64.77
60055;BME280;45930;53.514;55.904;2023-01-28T02:40:35;49674.72;;;-149.77;65.20
60055;BME280;45930;53.514;55.904;2023-01-28T02:42:03;49716.31;;;-149.77;65.11
60055;BME280;45930;53.514;55.904;2023-01-28T02:43:05;49708.41;;;-149.77;65.21
60055;BME280;45930;53.514;55.904;2023-01-28T02:44:06;49718.31;;;-149.77;64.86
60055;BME280;45930;53.514;55.904;2023-01-28T02:45:21;49670.75;;;-149.77;65.18
60055;BME280;45930;53.514;55.904;2023-01-28T02:47:47;49700.47;;;-149.77;65.04
60055;BME280;45930;53.514;55.904;2023-01-28T02:48:57;49714.34;;;-149.77;65.12
60055;BME280;45930;53.514;55.904;2023-01-28T02:50:02;49708.41;;;-149.77;65.12
60055;BME280;45930;53.514;55.904;2023-01-28T02:51:19;49690.56;;;-149.77;64.76
60055;BME280;45930;53.514;55.904;2023-01-28T02:52:28;49722.28;;;-149.77;64.07
60055;BME280;45930;53.514;55.904;2023-01-28T02:54:16;49706.41;;;-149.77;64.64
60055;BME280;45930;53.514;55.904;2023-01-28T02:55:52;49700.47;;;-149.77;64.61
60055;BME280;45930;53.514;55.904;2023-01-28T02:59:39;49688.59;;;-149.77;65.35
60055;BME280;45930;53.514;55.904;2023-01-28T03:01:47;49706.41;;;-149.77;65.30
60055;BME280;45930;53.514;55.904;2023-01-28T03:04:29;49708.41;;;-149.77;65.38
60055;BME280;45930;53.514;55.904;2023-01-28T03:05:40;49670.75;;;-149.77;65.61
60055;BME280;45930;53.514;55.904;2023-01-28T03:07:01;49702.47;;;-149.77;65.48
60055;BME280;45930;53.514;55.904;2023-01-28T03:08:04;49686.63;;;-149.77;65.31
60055;BME280;45930;53.514;55.904;2023-01-28T03:09:26;49678.69;;;-149.77;64.83
60055;BME280;45930;53.514;55.904;2023-01-28T03:10:27;49696.53;;;-149.77;65.38
60055;BME280;45930;53.514;55.904;2023-01-28T03:11:31;49700.47;;;-149.77;65.70
60055;BME280;45930;53.514;55.904;2023-01-28T03:12:54;49716.31;;;-149.77;65.27
60055;BME280;45930;53.514;55.904;2023-01-28T03:14:16;49702.47;;;-149.77;65.38
60055;BME280;45930;53.514;55.904;2023-01-28T03:15:46;49748.03;;;-149.77;65.30
60055;BME280;45930;53.514;55.904;2023-01-28T03:17:14;49710.38;;;-149.77;65.08
60055;BME280;45930;53.514;55.904;2023-01-28T03:18:44;49706.41;;;-149.77;64.66
60055;BME280;45930;53.514;55.904;2023-01-28T03:20:06;49714.34;;;-149.77;63.83
60055;BME280;45930;53.514;55.904;2023-01-28T03:21:33;49670.75;;;-149.77;64.10
60055;BME280;45930;53.514;55.904;2023-01-28T03:22:56;49672.75;;;-149.77;63.90
60055;BME280;45930;53.514;55.904;2023-01-28T03:24:25;49690.56;;;-149.77;63.70
60055;BME280;45930;53.514;55.904;2023-01-28T03:25:46;49676.72;;;-149.77;63.48
60055;BME280;45930;53.514;55.904;2023-01-28T03:28:47;49680.66;;;-149.77;62.27
60055;BME280;45930;53.514;55.904;2023-01-28T03:30:18;49662.84;;;-149.77;61.98
60055;BME280;45930;53.514;55.904;2023-01-28T03:31:39;49716.31;;;-149.77;62.57
60055;BME280;45930;53.514;55.904;2023-01-28T03:32:59;49674.72;;;-149.77;62.42
60055;BME280;45930;53.514;55.904;2023-01-28T03:34:20;49686.63;;;-149.77;62.40
60055;BME280;45930;53.514;55.904;2023-01-28T03:35:40;49688.59;;;-149.77;62.30
60055;BME280;45930;53.514;55.904;2023-01-28T03:37:00;49698.50;;;-149.77;62.56
60055;BME280;45930;53.514;55.904;2023-01-28T03:38:01;49718.31;;;-149.77;62.20
60055;BME280;45930;53.514;55.904;2023-01-28T03:39:22;49680.66;;;-149.77;62.28
60055;BME280;45930;53.514;55.904;2023-01-28T03:40:23;49680.66;;;-149.77;61.96
60055;BME280;45930;53.514;55.904;2023-01-28T03:41:26;49684.63;;;-149.77;61.80
60055;BME280;45930;53.514;55.904;2023-01-28T03:42:26;49666.81;;;-149.77;60.60
60055;BME280;45930;53.514;55.904;2023-01-28T03:43:28;49696.53;;;-149.77;60.68
60055;BME280;45930;53.514;55.904;2023-01-28T03:44:29;49676.72;;;-149.77;61.19
60055;BME280;45930;53.514;55.904;2023-01-28T03:45:48;49680.66;;;-149.77;61.10
60055;BME280;45930;53.514;55.904;2023-01-28T03:46:52;49696.53;;;-149.77;61.33
60055;BME280;45930;53.514;55.904;2023-01-28T03:47:55;49688.59;;;-149.77;61.45
60055;BME280;45930;53.514;55.904;2023-01-28T03:48:56;49704.44;;;-149.77;61.02
60055;BME280;45930;53.514;55.904;2023-01-28T03:50:00;49716.31;;;-149.77;61.52
60055;BME280;45930;53.514;55.904;2023-01-28T03:51:01;49706.41;;;-149.77;60.77
60055;BME280;45930;53.514;55.904;2023-01-28T03:52:02;49674.72;;;-149.77;61.07
60055;BME280;45930;53.514;55.904;2023-01-28T03:53:02;49682.66;;;-149.77;60.75
60055;BME280;45930;53.514;55.904;2023-01-28T03:54:12;49688.59;;;-149.77;60.53
60055;BME280;45930;53.514;55.904;2023-01-28T03:55:13;49698.50;;;-149.77;60.55
60055;BME280;45930;53.514;55.904;2023-01-28T03:56:13;49666.81;;;-149.77;60.70
60055;BME280;45930;53.514;55.904;2023-01-28T03:57:21;49674.72;;;-149.77;60.42
60055;BME280;45930;53.514;55.904;2023-01-28T03:58:23;49702.47;;;-149.77;60.28
60055;BME280;45930;53.514;55.904;2023-01-28T03:59:26;49708.41;;;-149.77;59.90
60055;BME280;45930;53.514;55.904;2023-01-28T04:00:27;49718.31;;;-149.77;60.43
60055;BME280;45930;53.514;55.904;2023-01-28T04:01:28;49702.47;;;-149.77;60.35
60055;BME280;45930;53.514;55.904;2023-01-28T04:02:28;49710.38;;;-149.77;60.97
60055;BME280;45930;53.514;55.904;2023-01-28T04:03:29;49666.81;;;-149.77;61.05
60055;BME280;45930;53.514;55.904;2023-01-28T04:04:30;49674.72;;;-149.77;60.83
60055;BME280;45930;53.514;55.904;2023-01-28T04:05:32;49696.53;;;-149.77;60.74
60055;BME280;45930;53.514;55.904;2023-01-28T04:06:32;49631.16;;;-149.77;60.67
60055;BME280;45930;53.514;55.904;2023-01-28T04:07:33;49672.75;;;-149.77;60.18
60055;BME280;45930;53.514;55.904;2023-01-28T04:08:34;49684.63;;;-149.77;60.32
60055;BME280;45930;53.514;55.904;2023-01-28T04:09:36;49674.72;;;-149.77;60.05
60055;BME280;45930;53.514;55.904;2023-01-28T04:15:24;49682.66;;;-149.77;59.45
60055;BME280;45930;53.514;55.904;2023-01-28T04:16:24;49698.50;;;-149.77;60.21
60055;BME280;45930;53.514;55.904;2023-01-28T04:17:25;49702.47;;;-149.77;59.95
60055;BME280;45930;53.514;55.904;2023-01-28T04:18:26;49668.78;;;-149.77;60.18
60055;BME280;45930;53.514;55.904;2023-01-28T04:19:28;49668.78;;;-149.77;60.03
60055;BME280;45930;53.514;55.904;2023-01-28T04:20:31;49698.50;;;-149.77;60.12
60055;BME280;45930;53.514;55.904;2023-01-28T04:21:32;49666.81;;;-149.77;60.69
60055;BME280;45930;53.514;55.904;2023-01-28T04:22:32;49684.63;;;-149.77;60.21
60055;BME280;45930;53.514;55.904;2023-01-28T04:23:33;49670.75;;;-149.77;60.28
60055;BME280;45930;53.514;55.904;2023-01-28T04:24:34;49656.91;;;-149.77;60.08
60055;BME280;45930;53.514;55.904;2023-01-28T04:25:35;49668.78;;;-149.77;60.20
60055;BME280;45930;53.514;55.904;2023-01-28T04:26:36;49680.66;;;-149.77;60.25
60055;BME280;45930;53.514;55.904;2023-01-28T04:27:37;49708.41;;;-149.77;60.54
60055;BME280;45930;53.514;55.904;2023-01-28T04:28:37;49676.72;;;-149.77;60.28
60055;BME280;45930;53.514;55.904;2023-01-28T04:29:47;49652.94;;;-149.77;60.03
60055;BME280;45930;53.514;55.904;2023-01-28T04:30:47;49672.75;;;-149.77;60.21
60055;BME280;45930;53.514;55.904;2023-01-28T04:31:48;49656.91;;;-149.77;60.85
60055;BME280;45930;53.514;55.904;2023-01-28T04:32:49;49654.91;;;-149.77;61.04
60055;BME280;45930;53.514;55.904;2023-01-28T04:33:50;49680.66;;;-149.77;60.80
60055;BME280;45930;53.514;55.904;2023-01-28T04:34:50;49698.50;;;-149.77;60.38
60055;BME280;45930;53.514;55.904;2023-01-28T04:35:51;49670.75;;;-149.77;59.98
60055;BME280;45930;53.514;55.904;2023-01-28T04:36:52;49652.94;;;-149.77;60.48
60055;BME280;45930;53.514;55.904;2023-01-28T04:37:53;49698.50;;;-149.77;60.24
60055;BME280;45930;53.514;55.904;2023-01-28T04:38:55;49670.75;;;-149.77;59.91
60055;BME280;45930;53.514;55.904;2023-01-28T04:39:56;49652.94;;;-149.77;60.17
60055;BME280;45930;53.514;55.904;2023-01-28T04:40:57;49650.94;;;-149.77;60.55
60055;BME280;45930;53.514;55.904;2023-01-28T04:41:57;49668.78;;;-149.77;60.40
60055;BME280;45930;53.514;55.904;2023-01-28T04:42:58;49658.88;;;-149.77;60.60
60055;BME280;45930;53.514;55.904;2023-01-28T04:43:59;49674.72;;;-149.77;60.52
60055;BME280;45930;53.514;55.904;2023-01-28T04:44:59;49647.00;;;-149.77;60.39
60055;BME280;45930;53.514;55.904;2023-01-28T04:46:00;49643.03;;;-149.77;60.65
60055;BME280;45930;53.514;55.904;2023-01-28T04:47:01;49666.81;;;-149.77;60.39
60055;BME280;45930;53.514;55.904;2023-01-28T04:48:02;49668.78;;;-149.77;60.72
60055;BME280;45930;53.514;55.904;2023-01-28T04:49:03;49678.69;;;-149.77;60.08
60055;BME280;45930;53.514;55.904;2023-01-28T04:50:04;49647.00;;;-149.77;60.19
60055;BME280;45930;53.514;55.904;2023-01-28T04:51:05;49639.06;;;-149.77;60.18
60055;BME280;45930;53.514;55.904;2023-01-28T04:52:06;49648.97;;;-149.77;59.34
60055;BME280;45930;53.514;55.904;2023-01-28T04:53:07;49674.72;;;-149.77;59.55
60055;BME280;45930;53.514;55.904;2023-01-28T04:54:08;49674.72;;;-149.77;59.12
60055;BME280;45930;53.514;55.904;2023-01-28T04:55:09;49656.91;;;-149.77;59.47
60055;BME280;45930;53.514;55.904;2023-01-28T04:56:10;49639.06;;;-149.77;59.41
60055;BME280;45930;53.514;55.904;2023-01-28T04:57:13;49645.00;;;-149.77;59.24
60055;BME280;45930;53.514;55.904;2023-01-28T04:58:16;49660.84;;;-149.77;59.12
60055;BME280;45930;53.514;55.904;2023-01-28T04:59:16;49639.06;;;-149.77;58.79
60055;BME280;45930;53.514;55.904;2023-01-28T05:00:18;49641.06;;;-149.77;58.86
60055;BME280;45930;53.514;55.904;2023-01-28T05:01:18;49647.00;;;-149.77;59.27
60055;BME280;45930;53.514;55.904;2023-01-28T05:02:19;49660.84;;;-149.77;59.39
60055;BME280;45930;53.514;55.904;2023-01-28T05:03:20;49648.97;;;-149.77;58.99
60055;BME280;45930;53.514;55.904;2023-01-28T05:04:21;49648.97;;;-149.77;59.17
60055;BME280;45930;53.514;55.904;2023-01-28T05:05:21;49639.06;;;-149.77;59.07
60055;BME280;45930;53.514;55.904;2023-01-28T05:06:22;49654.91;;;-149.77;58.81
60055;BME280;45930;53.514;55.904;2023-01-28T05:07:23;49654.91;;;-149.77;58.47
60055;BME280;45930;53.514;55.904;2023-01-28T05:08:27;49635.09;;;-149.77;58.71
60055;BME280;45930;53.514;55.904;2023-01-28T05:09:27;49658.88;;;-149.77;58.97
60055;BME280;45930;53.514;55.904;2023-01-28T05:10:32;49654.91;;;-149.77;59.01
60055;BME280;45930;53.514;55.904;2023-01-28T05:11:35;49647.00;;;-149.77;58.72
60055;BME280;45930;53.514;55.904;2023-01-28T05:12:36;49635.09;;;-149.77;58.51
60055;BME280;45930;53.514;55.904;2023-01-28T05:13:37;49647.00;;;-149.77;58.61
60055;BME280;45930;53.514;55.904;2023-01-28T05:14:38;49623.22;;;-149.77;58.56
60055;BME280;45930;53.514;55.904;2023-01-28T05:15:38;49641.06;;;-149.77;58.81
60055;BME280;45930;53.514;55.904;2023-01-28T05:16:39;49633.13;;;-149.77;58.91
60055;BME280;45930;53.514;55.904;2023-01-28T05:17:40;49662.84;;;-149.77;58.74
60055;BME280;45930;53.514;55.904;2023-01-28T05:18:42;49672.75;;;-149.77;58.47
60055;BME280;45930;53.514;55.904;2023-01-28T05:19:43;49637.09;;;-149.77;58.43
60055;BME280;45930;53.514;55.904;2023-01-28T05:20:46;49629.16;;;-149.77;58.03
60055;BME280;45930;53.514;55.904;2023-01-28T05:21:46;49615.28;;;-149.77;57.76
60055;BME280;45930;53.514;55.904;2023-01-28T05:22:47;49674.72;;;-149.77;57.81
60055;BME280;45930;53.514;55.904;2023-01-28T05:23:48;49615.28;;;-149.77;57.46
60055;BME280;45930;53.514;55.904;2023-01-28T05:24:49;49631.16;;;-149.77;56.99
60055;BME280;45930;53.514;55.904;2023-01-28T05:25:49;49643.03;;;-149.77;56.69
60055;BME280;45930;53.514;55.904;2023-01-28T05:26:50;49615.28;;;-149.77;56.72
60055;BME280;45930;53.514;55.904;2023-01-28T05:27:51;49599.44;;;-149.77;56.73
60055;BME280;45930;53.514;55.904;2023-01-28T05:28:52;49643.03;;;-149.77;56.55
60055;BME280;45930;53.514;55.904;2023-01-28T05:29:52;49623.22;;;-149.77;56.45
60055;BME280;45930;53.514;55.904;2023-01-28T05:30:53;49654.91;;;-149.77;56.00
60055;BME280;45930;53.514;55.904;2023-01-28T05:31:54;49623.22;;;-149.77;55.60
60055;BME280;45930;53.514;55.904;2023-01-28T05:32:55;49631.16;;;-149.77;55.48
60055;BME280;45930;53.514;55.904;2023-01-28T05:33:57;49629.16;;;-149.77;55.28
60055;BME280;45930;53.514;55.904;2023-01-28T05:34:57;49621.25;;;-149.77;55.22
60055;BME280;45930;53.514;55.904;2023-01-28T05:35:58;49619.25;;;-149.77;54.93
60055;BME280;45930;53.514;55.904;2023-01-28T05:36:59;49623.22;;;-149.77;54.93
60055;BME280;45930;53.514;55.904;2023-01-28T05:37:59;49603.41;;;-149.77;54.68
60055;BME280;45930;53.514;55.904;2023-01-28T05:39:03;49603.41;;;-149.77;54.63
60055;BME280;45930;53.514;55.904;2023-01-28T05:40:04;49629.16;;;-149.77;54.83
60055;BME280;45930;53.514;55.904;2023-01-28T05:41:05;49593.50;;;-149.77;54.73
60055;BME280;45930;53.514;55.904;2023-01-28T05:42:06;49571.72;;;-149.77;54.49
60055;BME280;45930;53.514;55.904;2023-01-28T05:43:07;49607.38;;;-149.77;54.17
60055;BME280;45930;53.514;55.904;2023-01-28T05:44:08;49595.50;;;-149.77;53.92
60055;BME280;45930;53.514;55.904;2023-01-28T05:45:09;49567.75;;;-149.77;53.67
60055;BME280;45930;53.514;55.904;2023-01-28T05:46:10;49585.59;;;-149.77;53.38
60055;BME280;45930;53.514;55.904;2023-01-28T05:47:11;49563.78;;;-149.77;52.38
60055;BME280;45930;53.514;55.904;2023-01-28T05:48:12;49605.38;;;-149.77;52.45
60055;BME280;45930;53.514;55.904;2023-01-28T05:49:13;49573.69;;;-149.77;51.85
60055;BME280;45930;53.514;55.904;2023-01-28T05:50:14;49601.44;;;-149.77;52.15
60055;BME280;45930;53.514;55.904;2023-01-28T05:51:15;49595.50;;;-149.77;51.92
60055;BME280;45930;53.514;55.904;2023-01-28T05:52:16;49607.38;;;-149.77;51.78